TimeCST,TemperatureF,Dew PointF,Humidity,Sea Level PressureIn,VisibilityMPH,Wind Direction,Wind SpeedMPH,Gust SpeedMPH,PrecipitationIn,Events,Conditions,WindDirDegrees,DateUTC
12:15 AM,32.0,28.4,87,29.65,10.0,ESE,4.6,-,N/A,,Partly Cloudy,120,2013-12-02 06:15:00
12:35 AM,32.0,28.4,87,29.64,10.0,ESE,9.2,-,N/A,,Scattered Clouds,120,2013-12-02 06:35:00
12:55 AM,32.0,28.4,87,29.63,10.0,SE,6.9,-,N/A,,Mostly Cloudy,130,2013-12-02 06:55:00
1:15 AM,32.0,28.4,87,29.62,10.0,SE,5.8,-,N/A,,Mostly Cloudy,130,2013-12-02 07:15:00
1:35 AM,32.0,28.4,87,29.62,10.0,ESE,6.9,-,N/A,,Mostly Cloudy,110,2013-12-02 07:35:00
1:55 AM,32.0,30.2,93,29.61,10.0,ESE,8.1,-,N/A,,Overcast,120,2013-12-02 07:55:00
2:15 AM,32.0,30.2,93,29.60,10.0,SE,6.9,-,N/A,,Mostly Cloudy,130,2013-12-02 08:15:00
2:35 AM,32.0,30.2,93,29.60,10.0,SE,5.8,-,N/A,,Overcast,130,2013-12-02 08:35:00
2:55 AM,32.0,32.0,100,29.59,6.0,ESE,10.4,-,N/A,,Overcast,120,2013-12-02 08:55:00
3:15 AM,32.0,32.0,100,29.57,5.0,East,8.1,-,N/A,,Overcast,90,2013-12-02 09:15:00
3:35 AM,32.0,32.0,100,29.58,4.0,South,6.9,-,N/A,,Overcast,180,2013-12-02 09:35:00
3:55 AM,32.0,32.0,100,29.57,4.0,ESE,5.8,-,N/A,,Overcast,110,2013-12-02 09:55:00
4:15 AM,32.0,32.0,100,29.55,5.0,ESE,9.2,-,N/A,,Overcast,120,2013-12-02 10:15:00
4:35 AM,32.0,32.0,100,29.54,5.0,ESE,8.1,-,N/A,,Overcast,110,2013-12-02 10:35:00
4:55 AM,32.0,32.0,100,29.54,4.0,ESE,8.1,-,N/A,,Overcast,110,2013-12-02 10:55:00
5:15 AM,32.0,32.0,100,29.52,3.0,SE,11.5,-,N/A,,Overcast,130,2013-12-02 11:15:00
5:35 AM,32.0,32.0,100,29.50,5.0,SE,11.5,-,N/A,,Overcast,130,2013-12-02 11:35:00
5:55 AM,32.0,32.0,100,29.50,4.0,East,9.2,-,N/A,,Overcast,90,2013-12-02 11:55:00
6:15 AM,32.0,32.0,100,29.50,3.0,East,4.6,-,N/A,,Overcast,90,2013-12-02 12:15:00
6:35 AM,32.0,32.0,100,29.49,6.0,ESE,9.2,-,N/A,,Overcast,110,2013-12-02 12:35:00
6:55 AM,33.8,33.8,100,29.50,8.0,Calm,Calm,-,N/A,,Overcast,0,2013-12-02 12:55:00
7:15 AM,33.8,33.8,100,29.50,7.0,SW,3.5,-,N/A,,Overcast,220,2013-12-02 13:15:00
7:35 AM,33.8,33.8,100,29.50,9.0,Calm,Calm,-,N/A,,Overcast,0,2013-12-02 13:35:00
7:55 AM,33.8,33.8,100,29.49,7.0,SE,5.8,-,N/A,,Overcast,130,2013-12-02 13:55:00
8:15 AM,33.8,33.8,100,29.50,7.0,ESE,6.9,-,N/A,,Overcast,120,2013-12-02 14:15:00
8:35 AM,32.0,32.0,100,29.49,5.0,ESE,5.8,-,N/A,,Mostly Cloudy,120,2013-12-02 14:35:00
8:55 AM,32.0,32.0,100,29.51,5.0,SE,4.6,-,N/A,,Mostly Cloudy,130,2013-12-02 14:55:00
9:15 AM,33.8,33.8,100,29.51,5.0,SE,5.8,-,N/A,,Overcast,140,2013-12-02 15:15:00
9:35 AM,33.8,33.8,100,29.50,7.0,SE,5.8,-,N/A,,Overcast,130,2013-12-02 15:35:00
9:55 AM,33.8,33.8,100,29.49,7.0,SE,8.1,-,N/A,,Partly Cloudy,140,2013-12-02 15:55:00
10:15 AM,33.8,33.8,100,29.49,5.0,SE,4.6,-,N/A,,Clear,130,2013-12-02 16:15:00
10:35 AM,35.6,35.6,100,29.51,7.0,South,4.6,-,N/A,,Mostly Cloudy,170,2013-12-02 16:35:00
10:55 AM,37.4,37.4,100,29.51,9.0,SSE,3.5,-,N/A,,Overcast,150,2013-12-02 16:55:00
11:15 AM,37.4,37.4,100,29.49,10.0,Calm,Calm,-,N/A,,Overcast,0,2013-12-02 17:15:00
11:35 AM,37.4,37.4,100,29.49,10.0,West,5.8,-,N/A,,Overcast,270,2013-12-02 17:35:00
11:55 AM,37.4,37.4,100,29.50,10.0,West,8.1,-,N/A,,Overcast,270,2013-12-02 17:55:00
12:15 PM,35.6,35.6,100,29.50,7.0,WNW,8.1,-,N/A,,Overcast,300,2013-12-02 18:15:00
12:35 PM,35.6,35.6,100,29.50,3.0,WNW,10.4,-,N/A,,Overcast,300,2013-12-02 18:35:00
12:55 PM,35.6,35.6,100,29.50,3.0,NW,11.5,-,N/A,,Overcast,310,2013-12-02 18:55:00
1:15 PM,35.6,35.6,100,29.50,3.0,NW,9.2,-,N/A,,Overcast,310,2013-12-02 19:15:00
1:35 PM,33.8,33.8,100,29.50,1.2,WNW,9.2,-,N/A,,Overcast,290,2013-12-02 19:35:00
1:55 PM,33.8,33.8,100,29.50,5.0,North,10.4,-,N/A,,Overcast,350,2013-12-02 19:55:00
2:15 PM,32.0,32.0,100,29.50,3.0,NNE,11.5,-,N/A,,Overcast,20,2013-12-02 20:15:00
2:35 PM,32.0,32.0,100,29.52,3.0,NNE,9.2,-,N/A,,Overcast,30,2013-12-02 20:35:00
2:55 PM,32.0,32.0,100,29.52,2.5,NNE,12.7,-,N/A,,Overcast,30,2013-12-02 20:55:00
3:15 PM,30.2,30.2,100,29.53,4.0,NE,12.7,-,N/A,,Overcast,40,2013-12-02 21:15:00
3:35 PM,30.2,30.2,100,29.55,7.0,NE,11.5,-,N/A,,Overcast,40,2013-12-02 21:35:00
3:55 PM,30.2,30.2,100,29.57,10.0,NNE,10.4,-,N/A,,Overcast,30,2013-12-02 21:55:00
4:15 PM,28.4,28.4,100,29.58,10.0,NNE,11.5,16.1,N/A,,Overcast,30,2013-12-02 22:15:00
4:35 PM,28.4,28.4,100,29.58,10.0,NE,9.2,17.3,N/A,,Overcast,50,2013-12-02 22:35:00
4:55 PM,28.4,26.6,93,29.59,9.0,NE,11.5,18.4,N/A,,Overcast,40,2013-12-02 22:55:00
5:15 PM,26.6,26.6,100,29.60,10.0,NNE,15.0,18.4,N/A,,Overcast,30,2013-12-02 23:15:00
5:35 PM,26.6,24.8,93,29.61,10.0,NE,10.4,18.4,N/A,,Overcast,50,2013-12-02 23:35:00
5:55 PM,26.6,24.8,93,29.62,10.0,NNE,13.8,19.6,N/A,,Overcast,30,2013-12-02 23:55:00
6:15 PM,24.8,24.8,100,29.62,10.0,NE,11.5,17.3,N/A,,Overcast,50,2013-12-03 00:15:00
6:35 PM,24.8,24.8,100,29.64,10.0,NNE,10.4,17.3,N/A,,Overcast,30,2013-12-03 00:35:00
6:55 PM,24.8,23.0,93,29.65,10.0,NE,12.7,19.6,N/A,,Overcast,50,2013-12-03 00:55:00
7:15 PM,23.0,23.0,100,29.66,10.0,NE,11.5,-,N/A,,Overcast,40,2013-12-03 01:15:00
7:35 PM,23.0,21.2,93,29.66,10.0,NE,12.7,-,N/A,,Overcast,40,2013-12-03 01:35:00
7:55 PM,23.0,21.2,93,29.67,10.0,NNE,15.0,-,N/A,,Overcast,30,2013-12-03 01:55:00
8:15 PM,23.0,19.4,86,29.66,10.0,NE,15.0,21.9,N/A,,Overcast,50,2013-12-03 02:15:00
8:35 PM,23.0,19.4,86,29.67,10.0,NE,17.3,23.0,N/A,,Overcast,50,2013-12-03 02:35:00
8:55 PM,23.0,21.2,93,29.68,10.0,NE,11.5,17.3,N/A,,Overcast,40,2013-12-03 02:55:00
9:15 PM,23.0,21.2,93,29.69,10.0,NE,10.4,17.3,N/A,,Overcast,50,2013-12-03 03:15:00
9:35 PM,23.0,21.2,93,29.68,10.0,NE,15.0,19.6,N/A,,Overcast,40,2013-12-03 03:35:00
9:55 PM,23.0,21.2,93,29.68,10.0,NE,11.5,17.3,N/A,,Overcast,40,2013-12-03 03:55:00
10:15 PM,23.0,23.0,100,29.69,10.0,NE,13.8,-,N/A,,Overcast,40,2013-12-03 04:15:00
10:35 PM,23.0,23.0,100,29.70,10.0,NNE,9.2,-,N/A,,Overcast,30,2013-12-03 04:35:00
10:55 PM,23.0,23.0,100,29.71,10.0,NNE,12.7,18.4,N/A,,Overcast,30,2013-12-03 04:55:00
11:15 PM,23.0,23.0,100,29.70,10.0,NNE,11.5,19.6,N/A,,Overcast,30,2013-12-03 05:15:00
11:35 PM,23.0,23.0,100,29.70,10.0,NNE,13.8,19.6,N/A,,Overcast,30,2013-12-03 05:35:00
11:55 PM,23.0,23.0,100,29.71,10.0,NNE,9.2,19.6,N/A,,Overcast,30,2013-12-03 05:55:00